Time;durP1;ratioP1;P1;durP2;ratioP2;P2;SDS_P1;SDS_P2;PMS_P1;PMS_P2;Temp;Humidity;BMP_temperature;BMP_pressure;BME280_temperature;BME280_humidity;BME280_pressure;Samples;Min_cycle;Max_cycle;Signal;HPM_P1;HPM_P2
2022/01/31 00:01:19;;;;;;;26.10;23.80;;;;;;;22.69;27.26;94865.47;5506410;28;105165;-55
2022/01/31 00:03:59;;;;;;;24.43;22.23;;;;;;;22.63;27.67;94859.47;5508805;28;103424;-55
2022/01/31 00:06:41;;;;;;;24.37;22.17;;;;;;;22.61;27.50;94853.66;5516898;28;103145;-55
2022/01/31 00:09:23;;;;;;;23.30;21.30;;;;;;;22.68;27.35;94862.03;5503935;28;103181;-55
2022/01/31 00:12:08;;;;;;;24.87;22.63;;;;;;;22.68;27.00;94871.88;5502697;28;103737;-55
2022/01/31 00:14:50;;;;;;;23.13;20.83;;;;;;;22.67;27.47;94856.97;5501502;28;103193;-57
2022/01/31 00:17:30;;;;;;;22.23;20.07;;;;;;;22.65;27.16;94862.59;5482358;28;103692;-56
2022/01/31 00:20:11;;;;;;;20.50;18.50;;;;;;;22.65;27.32;94872.47;5502061;28;102783;-56
2022/01/31 00:22:52;;;;;;;19.50;17.77;;;;;;;22.65;27.27;94877.81;5513954;28;102818;-56
2022/01/31 00:25:32;;;;;;;18.70;16.80;;;;;;;22.64;27.16;94879.69;5498630;28;103659;-54
2022/01/31 00:28:14;;;;;;;18.63;17.03;;;;;;;22.58;27.59;94867.59;5507842;28;103202;-55
2022/01/31 00:30:54;;;;;;;17.67;15.87;;;;;;;22.63;27.54;94875.44;5501410;28;103686;-54
2022/01/31 00:33:35;;;;;;;19.10;16.70;;;;;;;22.63;27.61;94874.66;5501445;28;104626;-56
2022/01/31 00:36:15;;;;;;;18.00;16.40;;;;;;;22.64;27.58;94868.25;5501741;28;103245;-56
2022/01/31 00:38:56;;;;;;;17.80;15.80;;;;;;;22.56;27.07;94864.47;5503674;28;102938;-57
2022/01/31 00:41:36;;;;;;;17.10;15.47;;;;;;;22.63;27.43;94867.47;5498198;28;102828;-55
2022/01/31 00:44:20;;;;;;;16.47;14.90;;;;;;;22.62;26.82;94881.88;5494757;28;103751;-56
2022/01/31 00:47:05;;;;;;;17.10;15.60;;;;;;;22.59;27.42;94882.47;5480015;28;103986;-55
2022/01/31 00:49:51;;;;;;;16.97;15.27;;;;;;;22.63;26.67;94894.09;5514854;28;103499;-56
2022/01/31 00:52:32;;;;;;;18.10;16.30;;;;;;;22.64;27.25;94894.88;5509083;28;103788;-57
2022/01/31 00:55:14;;;;;;;17.83;16.33;;;;;;;22.63;27.22;94887.97;5510612;28;102829;-55
2022/01/31 00:57:54;;;;;;;16.40;14.57;;;;;;;22.63;27.05;94898.63;5515522;28;102668;-57
2022/01/31 01:00:35;;;;;;;16.40;14.93;;;;;;;22.54;26.98;94887.16;5518698;28;102679;-56
2022/01/31 01:03:16;;;;;;;18.00;15.50;;;;;;;22.56;26.84;94882.31;5512372;28;102673;-57
2022/01/31 01:05:56;;;;;;;16.13;14.67;;;;;;;22.61;26.78;94890.16;5493806;28;102802;-56
2022/01/31 01:08:38;;;;;;;18.17;16.23;;;;;;;22.61;27.16;94895.50;5509474;28;102692;-56
2022/01/31 01:11:18;;;;;;;20.33;18.27;;;;;;;22.61;26.75;94890.94;5501275;28;102901;-56
2022/01/31 01:13:59;;;;;;;19.60;17.60;;;;;;;22.61;27.03;94887.50;5503148;28;102781;-56
2022/01/31 01:16:39;;;;;;;16.90;15.40;;;;;;;22.59;26.81;94882.47;5495178;28;103249;-57
2022/01/31 01:19:20;;;;;;;17.47;15.70;;;;;;;22.59;27.07;94879.03;5510425;28;102686;-57
2022/01/31 01:22:01;;;;;;;17.50;16.00;;;;;;;22.59;26.88;94882.47;5517958;28;102692;-56
2022/01/31 01:24:41;;;;;;;17.43;15.70;;;;;;;22.59;26.54;94874.50;5518401;28;103133;-56
2022/01/31 01:27:23;;;;;;;18.00;16.40;;;;;;;22.50;26.97;94858.47;5496480;28;102758;-55
2022/01/31 01:30:06;;;;;;;17.53;15.60;;;;;;;22.59;26.67;94865.72;5516708;28;102873;-56
2022/01/31 01:33:01;;;;;;;17.40;15.77;;;;;;;22.59;26.76;94869.16;5502311;28;103179;-57
2022/01/31 01:35:41;;;;;;;18.50;16.70;;;;;;;22.58;26.45;94862.28;5500971;28;102827;-56
2022/01/31 01:38:28;;;;;;;16.63;15.20;;;;;;;22.51;26.69;94849.41;5496248;28;104642;-56
2022/01/31 01:41:08;;;;;;;17.20;15.53;;;;;;;22.57;26.65;94859.91;5501016;28;102768;-56
2022/01/31 01:43:49;;;;;;;17.70;16.10;;;;;;;22.57;26.72;94858.03;5516884;28;102819;-57
2022/01/31 01:46:29;;;;;;;17.80;16.10;;;;;;;22.57;26.67;94867.91;5503825;28;102679;-56
2022/01/31 01:49:10;;;;;;;16.83;15.30;;;;;;;22.56;26.67;94858.34;5495866;28;102675;-56
2022/01/31 01:51:50;;;;;;;17.47;15.70;;;;;;;22.56;26.90;94855.69;5501017;28;102678;-56
2022/01/31 01:54:31;;;;;;;16.40;15.00;;;;;;;22.56;26.75;94863.69;5509138;28;104537;-56
2022/01/31 01:57:12;;;;;;;17.30;15.80;;;;;;;22.50;26.39;94858.47;5510521;28;104495;-57
2022/01/31 01:59:56;;;;;;;16.90;15.30;;;;;;;22.49;26.84;94854.22;5496120;28;104262;-54
2022/01/31 02:02:36;;;;;;;16.00;14.70;;;;;;;22.55;26.56;94870.09;5511908;28;102873;-56
2022/01/31 02:05:17;;;;;;;16.63;15.10;;;;;;;22.54;26.61;94868.53;5517011;28;103194;-56
2022/01/31 02:07:57;;;;;;;16.17;14.67;;;;;;;22.55;26.69;94876.22;5506492;28;103277;-56
2022/01/31 02:10:38;;;;;;;15.77;14.17;;;;;;;22.53;26.78;94867.75;5494598;28;102864;-56
2022/01/31 02:13:19;;;;;;;15.53;14.13;;;;;;;22.54;26.75;94868.53;5504648;28;103716;-56
2022/01/31 02:16:00;;;;;;;15.70;14.30;;;;;;;22.55;26.33;94873.53;5500676;28;104143;-56
2022/01/31 02:18:48;;;;;;;14.77;13.27;;;;;;;22.63;26.35;94872.00;5500802;28;102668;-56
2022/01/31 02:21:28;;;;;;;14.30;13.00;;;;;;;22.67;26.06;94865.75;5495258;28;103342;-55
2022/01/31 02:24:09;;;;;;;14.33;13.00;;;;;;;22.77;25.99;94870.03;5500187;28;102679;-57
2022/01/31 02:26:50;;;;;;;13.60;12.30;;;;;;;22.78;25.89;94869.72;5506214;28;103661;-55
2022/01/31 02:29:31;;;;;;;13.97;12.57;;;;;;;22.84;26.19;94872.28;5501891;28;102921;-53
2022/01/31 02:32:12;;;;;;;14.53;13.23;;;;;;;22.85;25.80;94872.00;5511894;28;102858;-55
2022/01/31 02:34:53;;;;;;;13.60;12.30;;;;;;;22.86;25.76;94878.88;5518690;28;102702;-53
2022/01/31 02:37:34;;;;;;;14.40;13.00;;;;;;;22.87;26.06;94879.66;5515384;28;102710;-54
2022/01/31 02:40:14;;;;;;;13.97;12.67;;;;;;;22.89;25.92;94882.81;5499957;28;102827;-55
2022/01/31 02:42:55;;;;;;;13.60;12.40;;;;;;;22.88;26.02;94886.56;5511390;28;103796;-53
2022/01/31 02:45:35;;;;;;;13.97;12.67;;;;;;;22.83;25.83;94882.13;5518999;28;102835;-53
2022/01/31 02:48:19;;;;;;;12.97;11.73;;;;;;;22.87;25.65;94883.13;5509317;28;103201;-55
2022/01/31 02:51:00;;;;;;;13.20;12.00;;;;;;;22.89;25.67;94886.25;5499448;28;102805;-55
2022/01/31 02:53:41;;;;;;;13.43;12.23;;;;;;;22.75;25.96;94864.22;5499691;28;102902;-54
2022/01/31 02:56:21;;;;;;;14.00;12.70;;;;;;;22.84;25.96;94877.59;5499109;28;102747;-56
2022/01/31 02:59:02;;;;;;;12.70;11.70;;;;;;;22.90;25.82;94882.50;5503682;28;103492;-55
2022/01/31 03:01:43;;;;;;;12.73;11.63;;;;;;;22.86;25.47;94878.09;5502785;28;102596;-55
2022/01/31 03:04:23;;;;;;;13.43;12.10;;;;;;;22.90;25.46;94882.50;5502115;28;103044;-56
2022/01/31 03:07:04;;;;;;;14.10;12.90;;;;;;;22.91;26.03;94889.41;5515359;28;103783;-55
2022/01/31 03:09:44;;;;;;;14.73;13.30;;;;;;;22.92;25.38;94884.84;5521030;28;102636;-55
2022/01/31 03:12:25;;;;;;;13.30;12.20;;;;;;;22.92;25.73;94900.84;5510625;28;103779;-55
2022/01/31 03:15:05;;;;;;;12.53;11.43;;;;;;;22.94;25.95;94899.44;5506463;28;103832;-55
2022/01/31 03:17:48;;;;;;;13.70;12.50;;;;;;;22.86;25.77;94892.19;5494013;28;102850;-55
2022/01/31 03:20:29;;;;;;;12.10;10.90;;;;;;;22.93;25.82;94897.84;5499543;28;103171;-56
2022/01/31 03:23:11;;;;;;;12.67;11.57;;;;;;;22.94;25.57;94903.97;5499586;28;103298;-55
2022/01/31 03:25:52;;;;;;;12.50;11.20;;;;;;;22.93;25.43;94892.53;5516604;28;102735;-54
2022/01/31 03:28:32;;;;;;;11.77;10.57;;;;;;;22.93;25.39;94897.06;5513121;28;103276;-54
2022/01/31 03:31:13;;;;;;;11.80;10.63;;;;;;;22.92;25.48;94890.19;5512369;28;102592;-55
2022/01/31 03:33:55;;;;;;;11.77;10.73;;;;;;;22.85;25.39;94877.31;5520273;28;103471;-56
2022/01/31 03:36:35;;;;;;;11.60;10.60;;;;;;;22.93;25.73;94884.53;5503637;28;102804;-56
2022/01/31 03:39:15;;;;;;;11.27;10.37;;;;;;;22.88;25.40;94873.25;5494407;28;103436;-56
2022/01/31 03:41:56;;;;;;;11.13;10.20;;;;;;;22.94;25.41;94880.78;5508511;28;102763;-55
2022/01/31 03:44:36;;;;;;;11.50;10.50;;;;;;;22.95;25.35;94877.03;5501942;28;102785;-54
2022/01/31 03:47:20;;;;;;;11.60;10.60;;;;;;;22.95;25.35;94874.34;5507091;28;103143;-56
2022/01/31 03:50:01;;;;;;;12.10;11.00;;;;;;;22.97;25.59;94882.03;5507595;28;103752;-55
2022/01/31 03:52:42;;;;;;;11.53;10.57;;;;;;;22.97;25.18;94882.81;5511254;28;102697;-56
2022/01/31 03:55:23;;;;;;;11.70;10.60;;;;;;;22.98;25.08;94879.06;5483405;28;103354;-56
2022/01/31 03:58:03;;;;;;;10.33;9.43;;;;;;;22.98;25.59;94881.72;5485619;28;103095;-56
2022/01/31 04:00:44;;;;;;;10.47;9.47;;;;;;;23.00;25.25;94894.75;5485031;28;102821;-56
2022/01/31 04:03:24;;;;;;;10.10;9.20;;;;;;;22.88;25.46;94873.25;5510392;28;103388;-56
2022/01/31 04:06:05;;;;;;;10.10;9.30;;;;;;;23.00;25.35;94889.41;5489798;28;103328;-56
2022/01/31 04:08:46;;;;;;;10.10;9.20;;;;;;;23.03;25.33;94894.16;5512399;28;103226;-56
2022/01/31 04:11:26;;;;;;;10.07;9.17;;;;;;;23.00;25.62;94892.06;5490945;28;102685;-56
2022/01/31 04:14:07;;;;;;;10.57;9.57;;;;;;;23.03;25.65;94894.16;5500855;28;102714;-54
2022/01/31 04:16:47;;;;;;;9.80;8.97;;;;;;;23.06;25.30;94901.53;5498585;28;102766;-56
2022/01/31 04:19:28;;;;;;;9.57;8.77;;;;;;;22.98;25.28;94900.38;5495603;28;102762;-56
2022/01/31 04:22:11;;;;;;;8.73;7.17;;;;;;;22.82;25.77;94904.53;5482716;28;102644;-57
2022/01/31 04:24:58;;;;;;;8.50;7.20;;;;;;;22.78;24.84;94895.56;5513134;28;103778;-56
2022/01/31 04:27:45;;;;;;;10.90;5.30;;;;;;;22.39;25.42;94869.69;5500807;28;103440;-55
2022/01/31 04:30:25;;;;;;;9.53;4.30;;;;;;;22.49;25.10;94899.50;5518333;28;102910;-53
2022/01/31 04:33:06;;;;;;;5.60;3.80;;;;;;;22.35;24.43;94895.38;5511407;28;103651;-56
2022/01/31 04:35:46;;;;;;;5.60;3.37;;;;;;;22.24;24.43;94896.69;5513746;28;102959;-56
2022/01/31 04:38:27;;;;;;;4.70;3.13;;;;;;;22.14;23.77;94895.06;5503785;28;103051;-55
2022/01/31 04:41:08;;;;;;;5.73;2.67;;;;;;;22.03;23.54;94891.03;5520144;28;103211;-56
2022/01/31 04:43:50;;;;;;;7.07;3.13;;;;;;;21.90;23.32;94888.13;5517420;28;102986;-53
2022/01/31 04:46:30;;;;;;;8.90;2.90;;;;;;;21.69;23.44;94887.03;5515659;28;103193;-56
2022/01/31 04:49:12;;;;;;;5.33;2.90;;;;;;;22.04;24.75;94887.28;5510918;28;102731;-56
2022/01/31 04:51:52;;;;;;;6.13;3.23;;;;;;;22.14;25.00;94882.53;5510190;28;103714;-56
2022/01/31 04:54:33;;;;;;;6.60;3.40;;;;;;;22.21;24.46;94876.81;5507882;28;102899;-54
2022/01/31 04:57:13;;;;;;;5.57;3.13;;;;;;;22.23;24.67;94879.16;5493744;28;103088;-56
2022/01/31 04:59:54;;;;;;;6.57;2.83;;;;;;;22.30;24.74;94882.94;5510866;28;103195;-56
2022/01/31 05:02:35;;;;;;;7.60;3.73;;;;;;;22.32;25.13;94872.78;5519503;28;102639;-55
2022/01/31 05:05:16;;;;;;;4.73;3.00;;;;;;;22.40;24.33;94871.28;5506080;28;104671;-56
2022/01/31 05:07:56;;;;;;;6.10;3.83;;;;;;;22.44;24.95;94873.00;5497836;28;104417;-54
2022/01/31 05:10:43;;;;;;;8.30;3.20;;;;;;;22.47;25.13;94874.28;5498994;28;102765;-55
2022/01/31 05:13:23;;;;;;;6.40;3.67;;;;;;;22.48;25.50;94868.63;5500922;28;103116;-55
2022/01/31 05:16:04;;;;;;;9.60;4.03;;;;;;;22.48;25.39;94871.31;5503495;28;104103;-55
2022/01/31 05:18:45;;;;;;;7.03;3.83;;;;;;;22.44;25.33;94861.56;5506817;28;102806;-54
2022/01/31 05:21:26;;;;;;;4.47;3.87;;;;;;;22.44;25.52;94857.03;5497839;28;102635;-54
2022/01/31 05:24:07;;;;;;;5.77;3.70;;;;;;;22.46;25.80;94860.19;5497726;28;103612;-55
2022/01/31 05:26:50;;;;;;;5.83;4.50;;;;;;;22.52;25.40;94872.28;5495859;28;102735;-53
2022/01/31 05:29:31;;;;;;;6.23;3.37;;;;;;;22.56;25.61;94866.34;5485040;28;103440;-54
2022/01/31 05:32:11;;;;;;;8.23;4.23;;;;;;;22.68;27.03;94863.91;5483583;28;102800;-55
2022/01/31 05:34:52;;;;;;;9.73;4.27;;;;;;;22.80;27.14;94866.75;5493896;28;102712;-54
2022/01/31 05:37:33;;;;;;;8.00;4.50;;;;;;;22.85;28.15;94871.19;5490689;28;102881;-54
2022/01/31 05:40:13;;;;;;;7.83;4.30;;;;;;;22.84;28.44;94867.72;5487525;28;103100;-54
2022/01/31 05:42:54;;;;;;;6.47;4.30;;;;;;;22.86;28.56;94870.09;5502714;28;102664;-54
2022/01/31 05:45:35;;;;;;;11.60;4.20;;;;;;;22.87;28.94;94867.13;5507157;28;103210;-54
2022/01/31 05:48:18;;;;;;;8.70;4.13;;;;;;;22.77;29.15;94867.38;5515557;28;102649;-54
2022/01/31 05:50:59;;;;;;;7.60;4.67;;;;;;;22.72;28.99;94875.50;5491347;28;103858;-54
2022/01/31 05:53:40;;;;;;;7.20;3.40;;;;;;;22.64;28.60;94865.59;5501444;28;102881;-55
2022/01/31 05:56:20;;;;;;;5.67;3.67;;;;;;;22.66;28.94;94874.03;5498930;28;104555;-54
2022/01/31 05:59:01;;;;;;;6.07;3.40;;;;;;;22.64;28.54;94890.34;5499973;28;102632;-55
2022/01/31 06:01:41;;;;;;;4.33;3.67;;;;;;;22.28;29.15;94845.22;5496226;28;103431;-55
2022/01/31 06:04:22;;;;;;;6.73;3.37;;;;;;;22.57;29.34;94889.22;5501879;28;103472;-54
2022/01/31 06:07:03;;;;;;;10.70;4.23;;;;;;;22.56;29.19;94893.75;5500825;28;102675;-54
2022/01/31 06:09:43;;;;;;;6.27;3.43;;;;;;;22.57;29.07;94897.97;5500807;28;102667;-54
2022/01/31 06:12:24;;;;;;;6.60;3.60;;;;;;;22.50;29.64;94898.41;5495573;28;103081;-54
2022/01/31 06:15:05;;;;;;;5.70;3.90;;;;;;;22.47;29.56;94896.34;5500375;28;103746;-54
2022/01/31 06:17:45;;;;;;;9.80;4.50;;;;;;;22.50;29.79;94889.63;5501199;28;102602;-55
2022/01/31 06:20:27;;;;;;;6.30;5.53;;;;;;;22.62;30.28;94894.41;5497988;28;102680;-55
2022/01/31 06:23:07;;;;;;;8.63;5.60;;;;;;;22.57;30.42;94897.97;5496471;28;102714;-55
2022/01/31 06:25:48;;;;;;;8.17;6.37;;;;;;;22.61;31.80;94890.16;5499225;28;104451;-55
2022/01/31 06:28:29;;;;;;;9.30;6.20;;;;;;;22.58;31.98;94893.44;5498358;28;102931;-55
2022/01/31 06:31:09;;;;;;;12.37;7.27;;;;;;;22.63;34.39;94882.66;5499538;28;102766;-55
2022/01/31 06:33:50;;;;;;;7.70;7.00;;;;;;;22.62;35.11;94875.75;5495507;28;102728;-55
2022/01/31 06:36:30;;;;;;;12.57;7.03;;;;;;;22.64;33.57;94858.38;5504458;28;103823;-54
2022/01/31 06:39:11;;;;;;;9.80;7.80;;;;;;;22.69;35.25;94860.94;5488521;28;103249;-55
2022/01/31 06:41:51;;;;;;;10.10;8.47;;;;;;;22.73;36.80;94856.53;5501024;28;103750;-55
2022/01/31 06:44:32;;;;;;;8.73;7.30;;;;;;;22.74;36.69;94852.00;5500303;28;103173;-56
2022/01/31 06:47:13;;;;;;;9.30;7.00;;;;;;;22.73;36.06;94839.78;5494696;28;103588;-55
2022/01/31 06:49:54;;;;;;;10.37;7.83;;;;;;;22.68;35.97;94842.59;5499627;28;103612;-55
2022/01/31 06:52:36;;;;;;;8.37;7.57;;;;;;;22.85;36.21;94848.00;5500733;28;103379;-55
2022/01/31 06:55:20;;;;;;;10.10;8.07;;;;;;;23.02;35.75;94869.38;5500208;28;102940;-54
2022/01/31 06:58:04;;;;;;;14.33;8.70;;;;;;;23.44;34.78;94875.09;5526992;28;104199;-54
2022/01/31 07:00:45;;;;;;;9.40;8.50;;;;;;;23.49;34.37;94864.28;5499870;28;102614;-54
2022/01/31 07:03:25;;;;;;;10.33;8.43;;;;;;;23.72;34.27;94875.63;5500406;28;102699;-55
2022/01/31 07:06:06;;;;;;;8.77;7.97;;;;;;;23.78;33.37;94861.03;5499831;28;102625;-54
2022/01/31 07:08:46;;;;;;;8.87;7.70;;;;;;;23.59;33.35;94858.69;5494819;28;102753;-55
2022/01/31 07:11:31;;;;;;;9.37;7.50;;;;;;;23.53;32.89;94851.91;5498840;28;103126;-55
2022/01/31 07:14:31;;;;;;;9.00;8.10;;;;;;;23.59;33.19;94848.00;5495271;28;102984;-55
2022/01/31 07:17:11;;;;;;;12.73;8.80;;;;;;;23.65;33.32;94845.97;5496665;28;102784;-55
2022/01/31 07:19:53;;;;;;;11.07;8.43;;;;;;;23.69;33.30;94842.38;5493735;28;102669;-55
2022/01/31 07:22:37;;;;;;;9.90;8.70;;;;;;;23.73;32.98;94845.19;5499612;28;102661;-55
2022/01/31 07:25:32;;;;;;;9.30;7.90;;;;;;;23.68;33.33;94837.31;5500171;28;103144;-56
2022/01/31 07:28:16;;;;;;;8.57;7.70;;;;;;;23.69;33.16;94839.72;5499937;28;103686;-54
2022/01/31 07:30:57;;;;;;;9.40;8.40;;;;;;;23.56;33.15;94823.84;5493786;28;103131;-56
2022/01/31 07:33:40;;;;;;;9.63;7.27;;;;;;;23.67;32.59;94839.22;5497166;28;102744;-54
2022/01/31 07:36:22;;;;;;;10.07;7.03;;;;;;;23.62;32.67;94826.03;5496641;28;103048;-54
2022/01/31 07:39:03;;;;;;;14.43;7.63;;;;;;;23.59;32.98;94825.91;5497070;28;103278;-58
2022/01/31 07:41:45;;;;;;;8.03;7.23;;;;;;;23.61;32.48;94816.47;5493430;28;102832;-59
2022/01/31 07:44:25;;;;;;;10.70;7.47;;;;;;;23.71;32.90;94826.06;5498867;28;103688;-59
2022/01/31 07:47:06;;;;;;;11.03;7.03;;;;;;;23.60;32.55;94828.25;5499466;28;102615;-59
2022/01/31 07:49:46;;;;;;;9.07;7.10;;;;;;;23.61;31.76;94826.38;5498771;28;102890;-60
2022/01/31 07:52:27;;;;;;;10.47;6.70;;;;;;;23.76;32.18;94828.56;5494423;28;102757;-59
2022/01/31 07:55:08;;;;;;;9.10;6.40;;;;;;;23.83;32.07;94820.06;5499383;28;103184;-59
2022/01/31 07:57:49;;;;;;;7.30;6.60;;;;;;;23.85;31.96;94821.34;5498973;28;102805;-59
2022/01/31 08:00:30;;;;;;;9.60;7.00;;;;;;;23.83;31.68;94807.50;5499310;28;102649;-59
2022/01/31 08:03:10;;;;;;;10.83;6.50;;;;;;;23.92;31.63;94815.50;5493696;28;102915;-58
2022/01/31 08:05:51;;;;;;;14.73;6.57;;;;;;;23.95;31.54;94806.88;5498492;28;104277;-58
2022/01/31 08:08:32;;;;;;;8.67;6.10;;;;;;;24.06;31.00;94813.47;5499263;28;102610;-58
2022/01/31 08:11:14;;;;;;;6.93;5.87;;;;;;;24.01;31.34;94811.72;5498569;28;102668;-58
2022/01/31 08:13:59;;;;;;;7.00;5.87;;;;;;;24.12;31.29;94814.06;5493836;28;103673;-59
2022/01/31 08:16:42;;;;;;;11.70;6.53;;;;;;;24.08;30.96;94819.25;5498423;28;102949;-59
2022/01/31 08:19:23;;;;;;;11.47;6.80;;;;;;;24.02;31.53;94817.88;5497898;28;102826;-57
2022/01/31 08:22:03;;;;;;;13.30;8.00;;;;;;;24.07;30.63;94811.56;5498752;28;102761;-57
2022/01/31 08:24:44;;;;;;;9.17;6.90;;;;;;;24.06;30.78;94821.47;5493556;28;103288;-57
2022/01/31 08:27:24;;;;;;;7.97;7.17;;;;;;;24.04;30.59;94810.31;5498396;28;102865;-57
2022/01/31 08:30:10;;;;;;;8.73;6.43;;;;;;;24.06;30.62;94810.78;5499149;28;102633;-56
2022/01/31 08:33:02;;;;;;;18.23;7.70;;;;;;;24.01;31.36;94790.38;5498037;28;102946;-58
2022/01/31 08:35:50;;;;;;;11.70;6.90;;;;;;;24.11;30.82;94791.16;5492658;28;102752;-59
2022/01/31 08:38:31;;;;;;;10.03;6.60;;;;;;;24.05;30.84;94787.88;5498637;28;102819;-59
2022/01/31 08:41:13;;;;;;;9.93;6.80;;;;;;;24.07;30.54;94804.34;5498337;28;102611;-60
2022/01/31 08:43:53;;;;;;;7.63;6.90;;;;;;;24.10;30.57;94805.59;5498335;28;103884;-56
2022/01/31 08:46:39;;;;;;;11.57;6.87;;;;;;;24.06;30.54;94805.44;5493427;28;103511;-59
2022/01/31 08:49:19;;;;;;;9.70;6.87;;;;;;;24.05;30.34;94798.53;5498736;28;103355;-59
2022/01/31 08:52:00;;;;;;;10.80;6.50;;;;;;;24.03;30.74;94795.41;5498378;28;103680;-59
2022/01/31 08:54:41;;;;;;;9.40;6.23;;;;;;;23.99;30.84;94800.56;5498542;28;102707;-57
2022/01/31 08:57:21;;;;;;;13.73;6.70;;;;;;;24.04;31.53;94804.19;5493216;28;103308;-58
2022/01/31 09:00:06;;;;;;;7.53;5.90;;;;;;;23.97;31.16;94794.78;5498474;28;102931;-58
2022/01/31 09:03:03;;;;;;;10.07;6.30;;;;;;;23.92;31.71;94802.97;5497908;28;102866;-57
2022/01/31 09:05:44;;;;;;;9.53;5.80;;;;;;;23.91;31.43;94795.28;5498656;28;103223;-58
2022/01/31 09:08:24;;;;;;;7.27;5.57;;;;;;;23.85;31.44;94778.66;5493936;28;103169;-59
2022/01/31 09:11:05;;;;;;;6.80;5.60;;;;;;;23.94;31.11;94778.63;5497856;28;103059;-58
2022/01/31 09:13:46;;;;;;;7.17;5.60;;;;;;;23.93;31.26;94785.06;5498481;28;103105;-59
2022/01/31 09:16:27;;;;;;;7.77;5.37;;;;;;;23.88;31.36;94778.00;5497446;28;103467;-59
2022/01/31 09:19:07;;;;;;;6.37;5.80;;;;;;;23.71;31.22;94756.69;5496494;28;103212;-58
2022/01/31 09:21:48;;;;;;;7.53;5.50;;;;;;;23.80;30.85;94772.69;5495993;28;102918;-60
2022/01/31 09:24:29;;;;;;;10.10;5.20;;;;;;;23.76;31.45;94751.19;5498389;28;102805;-58
2022/01/31 09:27:13;;;;;;;5.73;4.87;;;;;;;23.83;30.74;94758.69;5499761;28;103209;-58
2022/01/31 09:29:54;;;;;;;7.10;4.60;;;;;;;23.88;31.01;94748.66;5501949;28;103628;-57
2022/01/31 09:32:36;;;;;;;5.77;5.13;;;;;;;23.82;30.48;94749.13;5495879;28;105981;-58
2022/01/31 09:35:16;;;;;;;6.50;4.73;;;;;;;23.81;30.74;94745.69;5502051;28;102711;-59
2022/01/31 09:37:57;;;;;;;6.20;3.90;;;;;;;23.80;30.92;94749.44;5501950;28;102678;-60
2022/01/31 09:40:37;;;;;;;11.07;5.13;;;;;;;23.77;30.60;94743.97;5501447;28;103067;-59
2022/01/31 09:43:57;;;;;;;8.93;5.33;;;;;;;23.72;30.91;94739.59;5495683;28;103008;-58
2022/01/31 09:46:53;;;;;;;6.83;4.90;;;;;;;23.69;30.59;94727.69;5533503;28;102796;-58
2022/01/31 09:49:34;;;;;;;7.03;5.40;;;;;;;23.68;30.24;94717.31;5501354;28;102857;-58
2022/01/31 09:52:15;;;;;;;9.13;6.13;;;;;;;23.51;30.07;94687.97;5498553;28;102774;-57
2022/01/31 09:54:55;;;;;;;7.63;6.13;;;;;;;23.55;30.19;94691.59;5499139;28;102734;-58
2022/01/31 09:57:35;;;;;;;6.63;5.97;;;;;;;23.32;29.66;94649.13;5501600;28;102643;-58
2022/01/31 10:00:16;;;;;;;10.00;6.10;;;;;;;23.53;29.48;94680.47;5500451;28;102709;-58
2022/01/31 10:03:05;;;;;;;9.67;6.57;;;;;;;23.46;29.59;94686.25;5500055;28;103179;-58
2022/01/31 10:05:49;;;;;;;5.83;4.87;;;;;;;23.42;29.46;94685.34;5494424;28;102774;-55
2022/01/31 10:08:30;;;;;;;6.40;5.23;;;;;;;23.41;29.46;94689.09;5501312;28;102730;-58
2022/01/31 10:11:27;;;;;;;4.90;4.40;;;;;;;23.39;29.16;94683.31;5501005;28;102680;-58
2022/01/31 10:17:29;;;;;;;6.70;4.40;;;;;;;23.28;28.55;94650.84;5501422;28;103253;-58
2022/01/31 10:20:18;;;;;;;5.30;4.43;;;;;;;23.23;28.35;94639.56;5501295;28;102930;-57
2022/01/31 10:23:08;;;;;;;5.20;3.83;;;;;;;23.22;28.14;94628.13;5501159;28;102778;-58
2022/01/31 10:25:48;;;;;;;5.93;3.63;;;;;;;23.20;27.56;94625.00;5495111;28;102761;-58
2022/01/31 10:28:38;;;;;;;3.97;3.57;;;;;;;23.24;28.06;94625.16;5501102;28;102650;-58
2022/01/31 10:31:19;;;;;;;7.87;5.17;;;;;;;23.30;27.46;94623.88;5501159;28;102813;-58
2022/01/31 10:34:20;;;;;;;4.77;4.27;;;;;;;23.33;28.04;94631.22;5500430;28;102688;-58
2022/01/31 10:37:13;;;;;;;4.17;3.83;;;;;;;23.36;28.16;94617.28;5495341;28;103762;-57
2022/01/31 10:43:27;;;;;;;5.47;3.80;;;;;;;23.44;28.83;94587.16;5498354;28;103217;-58
2022/01/31 10:57:21;;;;;;;6.00;3.43;;;;;;;23.33;28.53;94516.59;5500440;28;102671;-58
2022/01/31 11:00:03;;;;;;;4.87;3.10;;;;;;;23.36;28.93;94524.00;5494722;28;104000;-58
2022/01/31 11:02:44;;;;;;;4.77;3.30;;;;;;;23.33;28.72;94519.28;5499755;28;102876;-58
2022/01/31 11:05:24;;;;;;;4.40;4.00;;;;;;;23.29;28.89;94527.13;5500084;28;103151;-58
2022/01/31 11:08:14;;;;;;;6.80;6.00;;;;;;;23.31;28.44;94524.94;5498732;28;104892;-59
2022/01/31 11:10:59;;;;;;;6.27;5.67;;;;;;;23.30;28.61;94515.38;5494348;28;102610;-59
2022/01/31 11:13:39;;;;;;;6.20;5.60;;;;;;;23.27;28.38;94507.22;5500116;28;102816;-54
2022/01/31 11:16:20;;;;;;;6.60;5.10;;;;;;;23.18;28.17;94491.28;5499652;28;102739;-58
2022/01/31 11:19:06;;;;;;;5.90;5.40;;;;;;;23.24;28.39;94497.22;5500470;28;102779;-57
2022/01/31 11:21:48;;;;;;;5.80;5.30;;;;;;;23.22;28.08;94505.53;5494451;28;102738;-58
2022/01/31 11:24:35;;;;;;;6.03;5.37;;;;;;;23.22;28.24;94496.75;5531088;28;102987;-57
2022/01/31 11:27:18;;;;;;;6.03;5.43;;;;;;;23.21;28.14;94506.63;5499969;28;102604;-58
2022/01/31 11:30:00;;;;;;;5.97;4.60;;;;;;;23.23;28.25;94506.31;5499744;28;102717;-59
2022/01/31 11:32:41;;;;;;;12.37;4.40;;;;;;;23.23;28.34;94508.97;5494087;28;102840;-59
2022/01/31 11:35:23;;;;;;;5.30;4.30;;;;;;;23.19;28.02;94484.06;5499948;28;103639;-58
2022/01/31 11:38:04;;;;;;;6.37;4.70;;;;;;;23.19;28.35;94478.75;5498685;28;103608;-58
2022/01/31 11:40:46;;;;;;;7.10;4.20;;;;;;;23.18;27.99;94467.31;5496497;28;103110;-58
2022/01/31 11:43:27;;;;;;;4.40;3.80;;;;;;;23.20;28.43;94459.00;5491444;28;102675;-58
2022/01/31 11:46:08;;;;;;;7.47;4.40;;;;;;;23.28;28.54;94450.16;5498361;28;102605;-59
2022/01/31 11:48:48;;;;;;;6.07;4.80;;;;;;;23.29;28.22;94454.38;5498847;28;102827;-59
2022/01/31 11:51:29;;;;;;;5.43;4.57;;;;;;;23.31;28.16;94444.19;5499349;28;102596;-58
2022/01/31 11:54:09;;;;;;;6.80;4.77;;;;;;;23.30;28.13;94442.63;5493464;28;103026;-58
2022/01/31 11:56:53;;;;;;;6.47;4.60;;;;;;;23.29;28.32;94433.84;5499335;28;102602;-58
2022/01/31 11:59:37;;;;;;;6.10;5.07;;;;;;;23.29;28.09;94435.72;5499222;28;102634;-58
2022/01/31 12:02:19;;;;;;;5.97;5.00;;;;;;;23.25;28.12;94427.59;5499132;28;102680;-59
2022/01/31 12:05:06;;;;;;;6.37;5.37;;;;;;;23.22;28.23;94420.25;5493802;28;102737;-58
2022/01/31 12:07:58;;;;;;;6.13;5.53;;;;;;;23.21;28.52;94413.34;5499064;28;105108;-56
2022/01/31 12:11:11;;;;;;;7.97;6.20;;;;;;;23.20;28.25;94406.47;5499395;28;102740;-58
2022/01/31 12:13:57;;;;;;;9.40;6.43;;;;;;;23.20;28.58;94400.34;5499161;28;102913;-58
2022/01/31 12:16:47;;;;;;;9.50;7.70;;;;;;;23.20;27.94;94395.81;5492681;28;103736;-59
2022/01/31 12:22:44;;;;;;;9.07;8.23;;;;;;;23.23;28.00;94397.81;5495691;28;102758;-57
2022/01/31 12:25:31;;;;;;;10.10;8.83;;;;;;;23.23;27.66;94383.72;5476800;28;102801;-57
2022/01/31 12:28:34;;;;;;;9.53;8.63;;;;;;;23.23;27.99;94375.72;5471978;28;102914;-57
2022/01/31 12:31:30;;;;;;;11.40;10.37;;;;;;;23.22;27.53;94364.28;5476688;28;102640;-58
2022/01/31 12:34:32;;;;;;;11.47;10.33;;;;;;;23.27;27.64;94360.63;5476540;28;102962;-58
2022/01/31 12:37:25;;;;;;;11.27;10.37;;;;;;;23.27;27.50;94368.63;5476733;28;102694;-57
2022/01/31 12:40:27;;;;;;;10.63;9.63;;;;;;;23.26;27.86;94357.19;5474535;28;102869;-55
2022/01/31 12:43:35;;;;;;;12.00;10.90;;;;;;;23.22;27.72;94342.19;5476694;28;103884;-58
2022/01/31 12:46:17;;;;;;;13.23;12.10;;;;;;;23.25;28.07;94341.53;5476213;28;102720;-57
2022/01/31 12:49:10;;;;;;;10.87;9.73;;;;;;;23.25;27.90;94347.66;5471824;28;102831;-57
2022/01/31 12:51:56;;;;;;;11.93;10.93;;;;;;;23.23;27.70;94349.06;5475470;28;102944;-58